Lily Atlantic — HOWL — position and weather

sailwx.info

Track history (hours):
 
Tides and Currents Weather Stations Pressure Air Temp Water Temp Dewpoint Dewpoint Depression Visibility Wind Speed Wind Dir Waves Ship Positions

Lily Atlantic

Last reported at 2017-Nov-27 05:53 UTC. Time now 2018-Jan-19 03:48 UTC.
Position N 01°19' E 103°20'.
Warning: this ship's position is 52 days out of date.

Length 229 m; draft 14.3 m.

Type: Cargo ship. MMSI: 354774000.

Date/timePositionNaut miles runAvg speedWind from/ knotsBaromVisibWave heightAir tempDewpointWater temp
2017-Nov-27 05:53N 01°19' E 103°20'511.8
2017-Nov-27 05:26N 01°16' E 103°24'512.1
2017-Nov-27 05:00N 01°14' E 103°28'612.3
2017-Nov-27 04:30N 01°12' E 103°34'612.2
2017-Nov-27 04:00N 01°10' E 103°40'510.6
2017-Nov-27 03:30N 01°09' E 103°45'612.4
2017-Nov-27 03:00N 01°12' E 103°51'611.7
2017-Nov-27 02:30N 01°14' E 103°56'612.1
2017-Nov-27 01:58N 01°16' E 104°02'  
2017-Nov-18 15:07N 01°15' E 104°03'511.9
2017-Nov-18 14:44N 01°14' E 103°58'311.9
2017-Nov-18 14:30N 01°13' E 103°56'611.2
2017-Nov-18 14:01N 01°11' E 103°50'510.9
2017-Nov-18 13:30N 01°08' E 103°46'611.9
2017-Nov-18 13:01N 01°04' E 103°41'611.1
2017-Nov-18 12:30N 01°04' E 103°36'611.8
2017-Nov-18 12:01N 01°07' E 103°31'611.8
2017-Nov-18 11:30N 01°11' E 103°26'611.7
2017-Nov-18 10:59N 01°14' E 103°21'  
Track history (hours):
 
Tides and Currents Weather Stations Pressure Air Temp Water Temp Dewpoint Dewpoint Depression Visibility Wind Speed Wind Dir Waves Ship Positions

Lily Atlantic

Last reported at 2017-Nov-27 05:53 UTC. Time now 2018-Jan-19 03:48 UTC.
Position N 01°19' E 103°20'.
Warning: this ship's position is 52 days out of date.

Length 229 m; draft 14.3 m.

Type: Cargo ship. MMSI: 354774000.

Date/timePositionNaut miles runAvg speedWind from/ knotsBaromVisibWave heightAir tempDewpointWater temp
2017-Nov-27 05:53N 01°19' E 103°20'511.8
2017-Nov-27 05:26N 01°16' E 103°24'512.1
2017-Nov-27 05:00N 01°14' E 103°28'612.3
2017-Nov-27 04:30N 01°12' E 103°34'612.2
2017-Nov-27 04:00N 01°10' E 103°40'510.6
2017-Nov-27 03:30N 01°09' E 103°45'612.4
2017-Nov-27 03:00N 01°12' E 103°51'611.7
2017-Nov-27 02:30N 01°14' E 103°56'612.1
2017-Nov-27 01:58N 01°16' E 104°02'  
2017-Nov-18 15:07N 01°15' E 104°03'511.9
2017-Nov-18 14:44N 01°14' E 103°58'311.9
2017-Nov-18 14:30N 01°13' E 103°56'611.2
2017-Nov-18 14:01N 01°11' E 103°50'510.9
2017-Nov-18 13:30N 01°08' E 103°46'611.9
2017-Nov-18 13:01N 01°04' E 103°41'611.1
2017-Nov-18 12:30N 01°04' E 103°36'611.8
2017-Nov-18 12:01N 01°07' E 103°31'611.8
2017-Nov-18 11:30N 01°11' E 103°26'611.7
2017-Nov-18 10:59N 01°14' E 103°21'  

Dump ship's entire track history